Time;durP1;ratioP1;P1;durP2;ratioP2;P2;SDS_P1;SDS_P2;PMS_P1;PMS_P2;Temp;Humidity;BMP_temperature;BMP_pressure;BME280_temperature;BME280_humidity;BME280_pressure;Samples;Min_cycle;Max_cycle;Signal;HPM_P1;HPM_P2
2022/08/09 00:01:10;;;;;;;8.13;2.78;;;;;;;;;;4993555;28;20220;-63
2022/08/09 00:03:35;;;;;;;8.02;2.65;;;;;;;;;;4991902;28;20250;-63
2022/08/09 00:06:00;;;;;;;7.82;2.58;;;;;;;;;;4992441;28;20217;-63
2022/08/09 00:08:25;;;;;;;5.40;2.50;;;;;;;;;;4983993;28;20225;-62
2022/08/09 00:10:51;;;;;;;6.30;2.50;;;;;;;;;;4985206;28;20214;-62
2022/08/09 00:13:16;;;;;;;7.00;2.50;;;;;;;;;;4980487;28;20223;-62
2022/08/09 00:15:42;;;;;;;5.45;2.60;;;;;;;;;;4994584;28;20296;-62
2022/08/09 00:18:07;;;;;;;6.40;3.03;;;;;;;;;;4995163;28;20239;-63
2022/08/09 00:20:32;;;;;;;4.78;2.58;;;;;;;;;;4994265;28;20205;-62
2022/08/09 00:22:57;;;;;;;6.63;2.60;;;;;;;;;;4993270;28;20220;-63
2022/08/09 00:25:23;;;;;;;5.38;2.40;;;;;;;;;;4992062;28;20298;-63
2022/08/09 00:27:48;;;;;;;6.45;3.22;;;;;;;;;;4997138;28;20975;-63
2022/08/09 00:30:13;;;;;;;6.57;3.20;;;;;;;;;;4986856;28;20223;-63
2022/08/09 00:32:38;;;;;;;6.55;2.60;;;;;;;;;;4981617;28;20251;-63
2022/08/09 00:35:04;;;;;;;4.18;2.85;;;;;;;;;;4991053;28;20856;-63
2022/08/09 00:37:30;;;;;;;5.95;2.90;;;;;;;;;;4992448;28;20613;-62
2022/08/09 00:39:55;;;;;;;8.50;3.00;;;;;;;;;;4997142;28;20216;-63
2022/08/09 00:42:21;;;;;;;8.27;3.40;;;;;;;;;;4997629;28;20307;-63
2022/08/09 00:44:46;;;;;;;5.68;3.22;;;;;;;;;;4992639;28;20216;-63
2022/08/09 00:47:12;;;;;;;6.15;3.03;;;;;;;;;;4997478;28;20278;-62
2022/08/09 00:49:37;;;;;;;8.57;3.75;;;;;;;;;;4997177;28;20217;-62
2022/08/09 00:52:03;;;;;;;7.72;3.10;;;;;;;;;;4990670;28;20798;-63
2022/08/09 00:54:28;;;;;;;6.63;3.50;;;;;;;;;;4992072;28;20209;-63
2022/08/09 00:56:53;;;;;;;5.55;3.30;;;;;;;;;;4991647;28;20791;-62
2022/08/09 00:59:19;;;;;;;7.13;3.40;;;;;;;;;;4991583;28;20213;-62
2022/08/09 01:01:44;;;;;;;6.78;3.30;;;;;;;;;;4990712;28;20331;-62
2022/08/09 01:04:12;;;;;;;10.00;3.25;;;;;;;;;;4991740;28;20221;-62
2022/08/09 01:06:40;;;;;;;7.95;3.60;;;;;;;;;;4995132;28;20290;-63
2022/08/09 01:09:19;;;;;;;7.88;3.63;;;;;;;;;;4990411;28;20335;-62
2022/08/09 01:11:51;;;;;;;8.20;3.08;;;;;;;;;;5001113;28;20216;-63
2022/08/09 01:14:25;;;;;;;8.50;3.50;;;;;;;;;;4992854;28;20239;-62
2022/08/09 01:16:51;;;;;;;6.22;3.20;;;;;;;;;;4990173;28;20212;-62
2022/08/09 01:19:19;;;;;;;8.55;3.55;;;;;;;;;;4983740;28;20220;-63
2022/08/09 01:21:46;;;;;;;7.85;3.30;;;;;;;;;;4992677;28;20219;-63
2022/08/09 01:24:30;;;;;;;9.45;4.55;;;;;;;;;;5001904;28;20706;-63
2022/08/09 01:26:58;;;;;;;7.70;4.60;;;;;;;;;;4988753;28;20718;-63
2022/08/09 01:29:26;;;;;;;9.90;4.47;;;;;;;;;;4987544;28;20208;-63
2022/08/09 01:31:51;;;;;;;6.57;3.75;;;;;;;;;;4994861;28;20229;-63
2022/08/09 01:34:17;;;;;;;7.90;4.13;;;;;;;;;;4998703;28;20227;-63
2022/08/09 01:36:42;;;;;;;7.35;4.28;;;;;;;;;;4994933;28;20668;-63
2022/08/09 01:39:07;;;;;;;9.18;4.45;;;;;;;;;;4985323;28;20312;-63
2022/08/09 01:41:34;;;;;;;7.85;4.60;;;;;;;;;;4983293;28;20213;-63
2022/08/09 01:44:00;;;;;;;8.70;4.68;;;;;;;;;;4988373;28;20248;-63
2022/08/09 01:46:25;;;;;;;6.90;3.90;;;;;;;;;;4990493;28;20279;-63
2022/08/09 01:48:51;;;;;;;7.97;4.60;;;;;;;;;;4992569;28;20214;-63
2022/08/09 01:51:16;;;;;;;7.97;4.45;;;;;;;;;;4993733;28;20213;-63
2022/08/09 01:53:42;;;;;;;9.35;4.68;;;;;;;;;;4991791;28;20520;-63
2022/08/09 01:56:07;;;;;;;8.00;4.93;;;;;;;;;;5000305;28;20232;-63
2022/08/09 01:58:33;;;;;;;10.93;5.60;;;;;;;;;;5001418;28;20224;-64
2022/08/09 02:00:58;;;;;;;8.57;5.50;;;;;;;;;;4981640;28;20267;-63
2022/08/09 02:03:24;;;;;;;8.45;5.07;;;;;;;;;;4985009;28;20212;-63
2022/08/09 02:05:49;;;;;;;10.77;5.43;;;;;;;;;;4981851;28;21159;-63
2022/08/09 02:08:15;;;;;;;8.40;5.60;;;;;;;;;;4991378;28;20256;-63
2022/08/09 02:10:41;;;;;;;8.40;5.22;;;;;;;;;;4994910;28;20224;-63
2022/08/09 02:13:07;;;;;;;9.48;5.50;;;;;;;;;;4977273;28;20213;-62
2022/08/09 02:15:32;;;;;;;9.57;5.63;;;;;;;;;;4993994;28;20215;-63
2022/08/09 02:17:58;;;;;;;8.73;5.00;;;;;;;;;;4994256;28;20281;-63
2022/08/09 02:20:23;;;;;;;7.03;4.40;;;;;;;;;;4992893;28;20212;-63
2022/08/09 02:22:55;;;;;;;8.50;5.25;;;;;;;;;;4994552;28;20217;-63
2022/08/09 02:25:22;;;;;;;11.43;4.78;;;;;;;;;;4990370;28;20739;-63
2022/08/09 02:27:50;;;;;;;11.95;5.35;;;;;;;;;;4986563;28;20213;-63
2022/08/09 02:30:15;;;;;;;7.60;4.90;;;;;;;;;;4982903;28;20300;-63
2022/08/09 02:32:42;;;;;;;10.20;5.70;;;;;;;;;;4996963;28;20553;-63
2022/08/09 02:35:09;;;;;;;11.00;5.68;;;;;;;;;;4992249;28;20221;-65
2022/08/09 02:37:34;;;;;;;8.15;5.28;;;;;;;;;;4996493;28;20240;-63
2022/08/09 02:40:00;;;;;;;9.50;5.32;;;;;;;;;;4995153;28;20212;-64
2022/08/09 02:42:26;;;;;;;7.15;5.03;;;;;;;;;;4989525;28;20228;-63
2022/08/09 02:44:54;;;;;;;13.27;6.15;;;;;;;;;;4993914;28;20227;-63
2022/08/09 02:47:20;;;;;;;8.45;5.13;;;;;;;;;;4987126;28;20311;-64
2022/08/09 02:49:49;;;;;;;7.70;5.32;;;;;;;;;;4987050;28;20804;-63
2022/08/09 02:52:14;;;;;;;10.52;5.95;;;;;;;;;;4990277;28;20204;-63
2022/08/09 02:54:40;;;;;;;11.70;6.18;;;;;;;;;;4997929;28;20221;-63
2022/08/09 02:57:05;;;;;;;9.13;5.68;;;;;;;;;;4987429;28;20251;-63
2022/08/09 02:59:30;;;;;;;10.95;6.50;;;;;;;;;;4997476;28;20217;-63
2022/08/09 03:01:58;;;;;;;8.13;6.30;;;;;;;;;;4994794;28;20230;-63
2022/08/09 03:04:23;;;;;;;11.02;6.18;;;;;;;;;;4984267;28;20215;-63
2022/08/09 03:06:48;;;;;;;10.50;6.43;;;;;;;;;;4987853;28;20252;-64
2022/08/09 03:09:14;;;;;;;10.55;6.57;;;;;;;;;;4979777;28;20213;-63
2022/08/09 03:11:39;;;;;;;10.90;6.75;;;;;;;;;;4980365;28;20771;-63
2022/08/09 03:14:04;;;;;;;11.65;7.25;;;;;;;;;;4987758;28;20244;-63
2022/08/09 03:16:30;;;;;;;12.80;7.35;;;;;;;;;;4993480;28;20227;-63
2022/08/09 03:18:55;;;;;;;11.38;7.40;;;;;;;;;;4994447;28;20876;-63
2022/08/09 03:21:21;;;;;;;12.27;7.95;;;;;;;;;;4996676;28;20929;-63
2022/08/09 03:23:46;;;;;;;11.82;7.53;;;;;;;;;;4991670;28;20232;-63
2022/08/09 03:26:18;;;;;;;12.25;8.13;;;;;;;;;;4983483;28;20225;-63
2022/08/09 03:28:44;;;;;;;14.48;8.23;;;;;;;;;;4992887;28;20209;-63
2022/08/09 03:31:09;;;;;;;11.07;7.97;;;;;;;;;;4993664;28;20318;-64
2022/08/09 03:33:35;;;;;;;12.98;8.10;;;;;;;;;;4992477;28;20209;-65
2022/08/09 03:36:01;;;;;;;13.07;8.38;;;;;;;;;;4991295;28;20304;-65
2022/08/09 03:38:26;;;;;;;11.63;7.80;;;;;;;;;;4995498;28;20263;-65
2022/08/09 03:40:51;;;;;;;15.07;7.97;;;;;;;;;;4996912;28;20221;-64
2022/08/09 03:43:17;;;;;;;11.52;8.13;;;;;;;;;;4993790;28;20212;-65
2022/08/09 03:45:42;;;;;;;10.98;7.47;;;;;;;;;;4999145;28;20224;-65
2022/08/09 03:48:07;;;;;;;12.60;7.90;;;;;;;;;;4997994;28;20575;-64
2022/08/09 03:50:32;;;;;;;13.02;8.82;;;;;;;;;;4998769;28;20248;-65
2022/08/09 03:52:58;;;;;;;13.20;8.43;;;;;;;;;;4971859;28;20217;-64
2022/08/09 03:55:24;;;;;;;12.15;8.48;;;;;;;;;;4985463;28;20204;-64
2022/08/09 03:57:49;;;;;;;14.40;8.57;;;;;;;;;;4996379;28;21106;-64
2022/08/09 04:00:15;;;;;;;13.95;9.13;;;;;;;;;;4994106;28;20459;-64
2022/08/09 04:02:41;;;;;;;19.23;8.30;;;;;;;;;;4998916;28;20224;-65
2022/08/09 04:05:07;;;;;;;13.93;8.82;;;;;;;;;;4995927;28;20212;-64
2022/08/09 04:07:32;;;;;;;13.50;8.43;;;;;;;;;;4997736;28;20228;-67
2022/08/09 04:09:57;;;;;;;14.75;9.15;;;;;;;;;;5002347;28;20212;-64
2022/08/09 04:12:29;;;;;;;12.82;7.93;;;;;;;;;;4992845;28;20217;-64
2022/08/09 04:14:54;;;;;;;15.50;9.95;;;;;;;;;;4992309;28;20299;-64
2022/08/09 04:17:19;;;;;;;13.05;9.18;;;;;;;;;;4987644;28;20316;-65
2022/08/09 04:19:44;;;;;;;13.77;9.90;;;;;;;;;;4983421;28;20762;-64
2022/08/09 04:22:10;;;;;;;13.32;8.65;;;;;;;;;;4993583;28;20270;-64
2022/08/09 04:24:35;;;;;;;13.20;9.68;;;;;;;;;;5001513;28;20243;-64
2022/08/09 04:27:00;;;;;;;11.63;8.43;;;;;;;;;;4997712;28;20213;-65
2022/08/09 04:29:25;;;;;;;14.45;8.82;;;;;;;;;;4995479;28;20216;-64
2022/08/09 04:31:52;;;;;;;12.27;9.40;;;;;;;;;;5012900;28;20213;-64
2022/08/09 04:34:17;;;;;;;15.32;9.80;;;;;;;;;;5014534;28;20557;-65
2022/08/09 04:36:42;;;;;;;12.73;8.35;;;;;;;;;;5014255;28;20219;-64
2022/08/09 04:39:08;;;;;;;11.65;8.70;;;;;;;;;;5013462;28;20236;-65
2022/08/09 04:41:33;;;;;;;11.65;7.68;;;;;;;;;;5014854;28;20216;-64
2022/08/09 04:43:58;;;;;;;11.88;8.25;;;;;;;;;;5014607;28;20266;-64
2022/08/09 04:46:23;;;;;;;15.00;8.73;;;;;;;;;;5016374;28;20211;-64
2022/08/09 04:48:49;;;;;;;11.65;8.88;;;;;;;;;;5025972;28;20278;-65
2022/08/09 04:51:14;;;;;;;13.95;7.93;;;;;;;;;;5022180;28;20291;-64
2022/08/09 04:53:40;;;;;;;9.88;6.93;;;;;;;;;;5022987;28;20934;-64
2022/08/09 04:56:05;;;;;;;10.48;7.63;;;;;;;;;;5021059;28;20220;-65
2022/08/09 04:58:30;;;;;;;10.57;7.07;;;;;;;;;;5024392;28;20223;-64
2022/08/09 05:00:56;;;;;;;13.20;6.60;;;;;;;;;;5020647;28;20561;-64
2022/08/09 05:03:21;;;;;;;9.27;6.40;;;;;;;;;;5022877;28;20204;-65
2022/08/09 05:05:47;;;;;;;12.43;7.65;;;;;;;;;;5016196;28;20247;-65
2022/08/09 05:08:12;;;;;;;10.73;7.77;;;;;;;;;;5012419;28;20451;-67
2022/08/09 05:10:37;;;;;;;11.13;7.57;;;;;;;;;;5014302;28;20236;-61
2022/08/09 05:13:03;;;;;;;10.27;7.07;;;;;;;;;;5013235;28;20212;-63
2022/08/09 05:15:28;;;;;;;11.35;7.68;;;;;;;;;;5013917;28;20209;-63
2022/08/09 05:17:53;;;;;;;10.30;7.65;;;;;;;;;;5013807;28;20591;-63
2022/08/09 05:20:19;;;;;;;9.35;6.40;;;;;;;;;;5013005;28;20227;-63
2022/08/09 05:22:45;;;;;;;10.27;7.43;;;;;;;;;;5013834;28;20212;-62
2022/08/09 05:25:11;;;;;;;17.73;6.95;;;;;;;;;;5012335;28;20219;-62
2022/08/09 05:27:36;;;;;;;10.45;7.43;;;;;;;;;;5013242;28;20695;-62
2022/08/09 05:30:01;;;;;;;10.80;7.43;;;;;;;;;;5013482;28;20283;-62
2022/08/09 05:32:27;;;;;;;12.48;7.47;;;;;;;;;;5013378;28;20214;-62
2022/08/09 05:34:52;;;;;;;12.30;7.68;;;;;;;;;;5012933;28;20247;-62
2022/08/09 05:37:17;;;;;;;10.52;6.72;;;;;;;;;;5013048;28;20696;-63
2022/08/09 05:39:42;;;;;;;11.07;6.88;;;;;;;;;;5013725;28;20216;-63
2022/08/09 05:42:08;;;;;;;12.85;6.60;;;;;;;;;;5011981;28;20557;-63
2022/08/09 05:44:33;;;;;;;8.82;6.32;;;;;;;;;;5013977;28;20300;-63
2022/08/09 05:46:59;;;;;;;8.63;5.88;;;;;;;;;;5012759;28;20209;-63
2022/08/09 05:49:24;;;;;;;9.00;6.43;;;;;;;;;;5015309;28;20218;-62
2022/08/09 05:51:49;;;;;;;11.02;6.13;;;;;;;;;;5013545;28;20228;-64
2022/08/09 05:54:15;;;;;;;10.07;6.95;;;;;;;;;;5012331;28;20208;-64
2022/08/09 05:56:40;;;;;;;9.38;6.40;;;;;;;;;;5013201;28;20217;-64
2022/08/09 05:59:06;;;;;;;10.20;6.70;;;;;;;;;;5012878;28;20246;-64
2022/08/09 06:01:31;;;;;;;11.23;6.88;;;;;;;;;;5012831;28;20208;-64
2022/08/09 06:03:57;;;;;;;9.27;5.68;;;;;;;;;;5012952;28;20212;-64
2022/08/09 06:06:22;;;;;;;9.80;6.15;;;;;;;;;;5012513;28;20215;-63
2022/08/09 06:08:47;;;;;;;9.32;6.05;;;;;;;;;;5012579;28;20227;-63
2022/08/09 06:11:13;;;;;;;9.95;6.65;;;;;;;;;;5012597;28;20209;-63
2022/08/09 06:13:38;;;;;;;9.63;6.75;;;;;;;;;;5013185;28;20243;-63
2022/08/09 06:16:03;;;;;;;8.90;6.07;;;;;;;;;;5012353;28;20240;-63
2022/08/09 06:18:28;;;;;;;10.98;6.57;;;;;;;;;;5012723;28;20688;-63
2022/08/09 06:20:55;;;;;;;9.85;6.00;;;;;;;;;;5013401;28;20220;-63
2022/08/09 06:23:20;;;;;;;8.43;6.78;;;;;;;;;;5012020;28;20680;-63
2022/08/09 06:25:45;;;;;;;7.25;5.65;;;;;;;;;;5012900;28;20299;-63
2022/08/09 06:28:11;;;;;;;9.73;5.93;;;;;;;;;;5012228;28;20208;-63
2022/08/09 06:30:36;;;;;;;10.95;6.38;;;;;;;;;;5012276;28;20231;-63
2022/08/09 06:33:01;;;;;;;9.57;5.93;;;;;;;;;;5012032;28;20713;-64
2022/08/09 06:35:27;;;;;;;12.50;5.70;;;;;;;;;;5013090;28;20295;-63
2022/08/09 06:37:52;;;;;;;10.38;5.25;;;;;;;;;;5012443;28;20591;-64
2022/08/09 06:40:17;;;;;;;8.55;5.50;;;;;;;;;;5012975;28;20655;-63
2022/08/09 06:42:43;;;;;;;9.05;5.43;;;;;;;;;;5013046;28;20225;-64
2022/08/09 06:45:08;;;;;;;11.32;5.70;;;;;;;;;;5012000;28;20216;-64
2022/08/09 06:47:33;;;;;;;6.00;4.43;;;;;;;;;;5013170;28;20571;-64
2022/08/09 06:49:59;;;;;;;8.60;5.15;;;;;;;;;;5011936;28;20266;-64
2022/08/09 06:52:24;;;;;;;9.13;4.43;;;;;;;;;;5011935;28;20600;-64
2022/08/09 06:54:49;;;;;;;11.25;4.80;;;;;;;;;;5012984;28;20221;-64
2022/08/09 06:57:15;;;;;;;7.32;4.60;;;;;;;;;;5012827;28;20235;-64
2022/08/09 06:59:40;;;;;;;8.20;4.50;;;;;;;;;;5012283;28;20626;-63
2022/08/09 07:02:05;;;;;;;9.43;3.90;;;;;;;;;;5012658;28;20290;-63
2022/08/09 07:04:31;;;;;;;7.35;4.82;;;;;;;;;;5012131;28;20224;-64
2022/08/09 07:06:56;;;;;;;8.32;4.63;;;;;;;;;;5012357;28;20644;-64
2022/08/09 07:09:21;;;;;;;8.23;4.45;;;;;;;;;;5012625;28;20216;-64
2022/08/09 07:11:46;;;;;;;7.32;4.35;;;;;;;;;;5012567;28;20718;-64
2022/08/09 07:14:16;;;;;;;5.03;3.85;;;;;;;;;;5011893;28;20220;-64
2022/08/09 07:16:42;;;;;;;8.13;4.30;;;;;;;;;;5013076;28;20212;-64
2022/08/09 07:19:10;;;;;;;10.38;4.30;;;;;;;;;;5011616;28;20242;-64
2022/08/09 07:21:35;;;;;;;7.05;4.53;;;;;;;;;;5012865;28;20208;-64
2022/08/09 07:24:00;;;;;;;7.20;4.45;;;;;;;;;;5017833;28;20619;-64
2022/08/09 07:26:26;;;;;;;10.13;4.28;;;;;;;;;;5018791;28;20208;-64
2022/08/09 07:28:51;;;;;;;8.85;4.28;;;;;;;;;;5018965;28;20671;-64
2022/08/09 07:31:16;;;;;;;6.22;3.58;;;;;;;;;;5018629;28;20219;-64
2022/08/09 07:33:43;;;;;;;6.43;3.55;;;;;;;;;;5018349;28;20220;-64
2022/08/09 07:36:09;;;;;;;7.88;3.63;;;;;;;;;;5018542;28;20212;-64
2022/08/09 07:38:34;;;;;;;5.47;3.20;;;;;;;;;;5019167;28;20223;-64
2022/08/09 07:40:59;;;;;;;8.18;2.78;;;;;;;;;;5018318;28;20584;-64
2022/08/09 07:43:25;;;;;;;7.88;3.35;;;;;;;;;;5018429;28;21076;-64
2022/08/09 07:45:50;;;;;;;7.22;3.08;;;;;;;;;;5019106;28;20690;-64
2022/08/09 07:48:15;;;;;;;8.48;3.05;;;;;;;;;;5018025;28;20679;-64
2022/08/09 07:50:42;;;;;;;6.35;3.20;;;;;;;;;;5018729;28;20699;-63
2022/08/09 07:53:07;;;;;;;5.07;2.85;;;;;;;;;;5018938;28;20588;-64
2022/08/09 07:55:33;;;;;;;3.70;2.60;;;;;;;;;;5017926;28;20212;-63
2022/08/09 07:57:58;;;;;;;6.22;3.00;;;;;;;;;;5019159;28;20224;-63
2022/08/09 08:00:24;;;;;;;4.35;2.70;;;;;;;;;;5018283;28;20211;-64
2022/08/09 08:02:49;;;;;;;9.02;3.15;;;;;;;;;;5018252;28;20295;-63
2022/08/09 08:05:15;;;;;;;5.47;2.75;;;;;;;;;;5018262;28;20304;-64
2022/08/09 08:07:40;;;;;;;6.43;2.58;;;;;;;;;;5018380;28;20758;-64
2022/08/09 08:10:06;;;;;;;4.95;2.33;;;;;;;;;;5018360;28;20223;-63
2022/08/09 08:12:31;;;;;;;6.07;2.75;;;;;;;;;;5018942;28;20212;-64
2022/08/09 08:14:57;;;;;;;4.75;2.38;;;;;;;;;;5018419;28;20208;-63
2022/08/09 08:17:22;;;;;;;4.70;2.33;;;;;;;;;;5018218;28;20311;-64
2022/08/09 08:19:48;;;;;;;4.72;1.95;;;;;;;;;;5018609;28;20204;-64
2022/08/09 08:22:13;;;;;;;4.68;2.47;;;;;;;;;;5017722;28;20625;-64
2022/08/09 08:24:38;;;;;;;4.57;1.90;;;;;;;;;;5018627;28;20208;-64
2022/08/09 08:27:03;;;;;;;5.72;2.30;;;;;;;;;;5018177;28;20582;-64
2022/08/09 08:29:29;;;;;;;6.38;2.20;;;;;;;;;;5018236;28;20208;-64
2022/08/09 08:31:54;;;;;;;6.65;2.10;;;;;;;;;;5018598;28;20566;-64
2022/08/09 08:34:19;;;;;;;4.10;1.90;;;;;;;;;;5016094;28;20217;-64
2022/08/09 08:36:45;;;;;;;5.72;1.58;;;;;;;;;;5014821;28;20212;-64
2022/08/09 08:39:10;;;;;;;5.20;2.00;;;;;;;;;;5015002;28;20232;-64
2022/08/09 08:41:36;;;;;;;11.68;1.90;;;;;;;;;;5015294;28;20205;-64
2022/08/09 08:44:01;;;;;;;4.10;1.25;;;;;;;;;;5014294;28;20576;-65
2022/08/09 08:46:29;;;;;;;5.13;1.40;;;;;;;;;;5015315;28;20208;-64
2022/08/09 08:48:54;;;;;;;3.63;1.40;;;;;;;;;;5014364;28;20223;-64
2022/08/09 08:51:20;;;;;;;3.75;1.60;;;;;;;;;;5012750;28;20287;-64
2022/08/09 08:53:45;;;;;;;4.75;1.50;;;;;;;;;;5014026;28;20216;-64
2022/08/09 08:56:11;;;;;;;1.85;1.08;;;;;;;;;;5014721;28;20262;-64
2022/08/09 08:58:36;;;;;;;6.13;2.10;;;;;;;;;;5014469;28;20304;-64
2022/08/09 09:01:02;;;;;;;2.67;1.13;;;;;;;;;;5013330;28;20217;-64
2022/08/09 09:03:31;;;;;;;1.65;1.10;;;;;;;;;;5015224;28;20205;-64
2022/08/09 09:05:56;;;;;;;1.42;1.00;;;;;;;;;;5014131;28;20224;-63
2022/08/09 09:08:21;;;;;;;3.63;1.10;;;;;;;;;;5014300;28;20278;-64
2022/08/09 09:10:47;;;;;;;3.97;1.10;;;;;;;;;;5015387;28;20699;-63
2022/08/09 09:13:13;;;;;;;2.95;1.20;;;;;;;;;;5012489;28;20216;-64
2022/08/09 09:15:38;;;;;;;3.70;1.20;;;;;;;;;;5014716;28;20296;-64
2022/08/09 09:18:03;;;;;;;3.88;1.30;;;;;;;;;;5013819;28;20315;-63
2022/08/09 09:20:29;;;;;;;4.50;1.48;;;;;;;;;;5014451;28;20212;-63
2022/08/09 09:22:55;;;;;;;4.10;1.15;;;;;;;;;;5013494;28;20663;-63
2022/08/09 09:25:34;;;;;;;3.00;1.20;;;;;;;;;;5013786;28;21638;-64
2022/08/09 09:28:00;;;;;;;6.18;1.10;;;;;;;;;;5014628;28;20236;-64
2022/08/09 09:30:25;;;;;;;3.65;1.02;;;;;;;;;;5013973;28;20255;-65
2022/08/09 09:33:01;;;;;;;3.03;1.00;;;;;;;;;;5013740;28;20205;-63
2022/08/09 09:35:27;;;;;;;4.28;1.00;;;;;;;;;;5014186;28;20220;-63
2022/08/09 09:37:52;;;;;;;3.85;0.98;;;;;;;;;;5012862;28;20250;-64
2022/08/09 09:40:17;;;;;;;3.03;0.88;;;;;;;;;;5013258;28;20300;-64
2022/08/09 09:42:43;;;;;;;3.67;0.88;;;;;;;;;;5014137;28;20215;-63
2022/08/09 09:45:08;;;;;;;3.67;1.00;;;;;;;;;;5012513;28;20234;-64
2022/08/09 09:47:33;;;;;;;2.78;0.90;;;;;;;;;;5012957;28;20217;-64
2022/08/09 09:49:59;;;;;;;3.28;0.98;;;;;;;;;;5014215;28;20675;-64
2022/08/09 09:52:26;;;;;;;4.20;1.17;;;;;;;;;;5012318;28;20216;-64
2022/08/09 09:54:52;;;;;;;2.67;0.73;;;;;;;;;;5012098;28;20248;-64
2022/08/09 09:57:18;;;;;;;3.40;0.80;;;;;;;;;;5012392;28;20216;-64
2022/08/09 09:59:44;;;;;;;2.85;0.98;;;;;;;;;;5013917;28;20228;-63
2022/08/09 10:02:10;;;;;;;2.47;0.80;;;;;;;;;;5012660;28;20227;-63
2022/08/09 10:04:35;;;;;;;1.27;0.77;;;;;;;;;;5014422;28;20295;-64
2022/08/09 10:07:00;;;;;;;1.60;0.70;;;;;;;;;;5013230;28;20275;-66
2022/08/09 10:09:25;;;;;;;2.35;0.80;;;;;;;;;;5013152;28;20682;-64
2022/08/09 10:11:56;;;;;;;3.08;0.77;;;;;;;;;;5013943;28;20248;-63
2022/08/09 10:14:28;;;;;;;3.08;0.85;;;;;;;;;;5011495;28;20213;-64
2022/08/09 10:16:53;;;;;;;2.42;0.90;;;;;;;;;;5012337;28;20220;-63
2022/08/09 10:19:18;;;;;;;2.15;0.90;;;;;;;;;;5013057;28;20639;-64
2022/08/09 10:21:46;;;;;;;3.50;0.80;;;;;;;;;;5013041;28;20284;-63
2022/08/09 10:24:12;;;;;;;2.47;0.50;;;;;;;;;;5012870;28;20668;-64
2022/08/09 10:26:38;;;;;;;3.58;0.77;;;;;;;;;;5012533;28;20283;-63
2022/08/09 10:29:04;;;;;;;3.70;0.70;;;;;;;;;;5011082;28;20221;-64
2022/08/09 10:31:29;;;;;;;2.20;0.70;;;;;;;;;;5013569;28;20227;-63
2022/08/09 10:33:55;;;;;;;3.60;0.80;;;;;;;;;;5013207;28;20611;-61
2022/08/09 10:36:20;;;;;;;0.95;0.60;;;;;;;;;;5012438;28;20212;-63
2022/08/09 10:38:46;;;;;;;3.03;0.70;;;;;;;;;;5012966;28;20763;-63
2022/08/09 10:41:11;;;;;;;3.00;0.68;;;;;;;;;;5012861;28;20208;-64
2022/08/09 10:43:37;;;;;;;4.00;0.70;;;;;;;;;;5012242;28;20205;-64
2022/08/09 10:46:15;;;;;;;1.77;0.55;;;;;;;;;;5012912;28;20236;-64
2022/08/09 10:48:44;;;;;;;4.30;1.63;;;;;;;;;;5013240;28;20303;-63
2022/08/09 10:51:28;;;;;;;1.33;0.50;;;;;;;;;;5010710;28;20216;-63
2022/08/09 10:53:59;;;;;;;2.03;0.88;;;;;;;;;;5012808;28;20220;-63
2022/08/09 10:56:26;;;;;;;4.90;0.80;;;;;;;;;;5012357;28;20212;-63
2022/08/09 10:58:51;;;;;;;3.17;0.90;;;;;;;;;;5010773;28;20580;-63
2022/08/09 11:01:32;;;;;;;4.18;0.70;;;;;;;;;;5012590;28;20683;-64
2022/08/09 11:04:07;;;;;;;4.20;1.00;;;;;;;;;;5012257;28;20216;-63
2022/08/09 11:06:34;;;;;;;1.23;0.70;;;;;;;;;;5012400;28;20219;-64
2022/08/09 11:09:00;;;;;;;2.75;0.85;;;;;;;;;;5011601;28;20688;-63
2022/08/09 11:11:25;;;;;;;2.05;0.77;;;;;;;;;;5012028;28;20255;-64
2022/08/09 11:14:09;;;;;;;1.63;0.50;;;;;;;;;;5011647;28;20728;-63
2022/08/09 11:16:35;;;;;;;3.33;0.70;;;;;;;;;;5012471;28;20255;-63
2022/08/09 11:19:00;;;;;;;4.07;0.95;;;;;;;;;;5012273;28;20228;-65
2022/08/09 11:21:44;;;;;;;2.75;0.80;;;;;;;;;;5013145;28;20209;-64
2022/08/09 11:24:10;;;;;;;1.50;0.60;;;;;;;;;;5012534;28;20383;-64
2022/08/09 11:26:37;;;;;;;4.20;0.90;;;;;;;;;;5011991;28;20679;-64
2022/08/09 11:29:02;;;;;;;1.85;0.70;;;;;;;;;;5012504;28;20216;-64
2022/08/09 11:31:38;;;;;;;3.28;0.85;;;;;;;;;;5012513;28;20259;-64
2022/08/09 11:34:04;;;;;;;3.53;0.90;;;;;;;;;;5010826;28;20219;-63
2022/08/09 11:36:29;;;;;;;2.17;0.80;;;;;;;;;;5012562;28;20208;-64
2022/08/09 11:38:59;;;;;;;5.72;0.90;;;;;;;;;;5010789;28;20228;-64
2022/08/09 11:41:27;;;;;;;2.63;0.73;;;;;;;;;;5011771;28;20221;-64
2022/08/09 11:43:52;;;;;;;3.55;1.27;;;;;;;;;;5012471;28;20624;-64
2022/08/09 11:46:18;;;;;;;3.50;0.70;;;;;;;;;;5011266;28;20299;-64
2022/08/09 11:48:46;;;;;;;3.40;0.80;;;;;;;;;;5012472;28;20677;-63
2022/08/09 11:51:11;;;;;;;3.58;0.75;;;;;;;;;;5012173;28;20220;-64
2022/08/09 11:53:37;;;;;;;2.10;0.70;;;;;;;;;;5012026;28;20204;-63
2022/08/09 11:56:12;;;;;;;2.22;0.80;;;;;;;;;;5011793;28;20784;-64
2022/08/09 11:58:40;;;;;;;2.95;0.80;;;;;;;;;;5012612;28;20765;-64
2022/08/09 12:01:05;;;;;;;1.63;0.60;;;;;;;;;;5011173;28;20212;-64
2022/08/09 12:03:31;;;;;;;2.58;0.68;;;;;;;;;;5012799;28;20223;-64
2022/08/09 12:05:57;;;;;;;2.20;0.73;;;;;;;;;;5012210;28;20216;-63
2022/08/09 12:08:23;;;;;;;2.47;0.70;;;;;;;;;;5011237;28;20231;-64
2022/08/09 12:10:49;;;;;;;2.45;0.80;;;;;;;;;;5015765;28;20231;-64
2022/08/09 12:13:27;;;;;;;2.05;0.60;;;;;;;;;;5016157;28;20568;-64
2022/08/09 12:16:03;;;;;;;3.22;0.88;;;;;;;;;;5015151;28;20212;-64
2022/08/09 12:18:29;;;;;;;1.92;0.80;;;;;;;;;;5014757;28;20224;-64
2022/08/09 12:20:54;;;;;;;4.63;0.80;;;;;;;;;;5015155;28;20215;-64
2022/08/09 12:23:19;;;;;;;1.45;0.60;;;;;;;;;;5015578;28;20243;-64
2022/08/09 12:25:46;;;;;;;1.35;0.43;;;;;;;;;;5014523;28;20675;-64
2022/08/09 12:28:12;;;;;;;2.33;0.70;;;;;;;;;;5015211;28;20761;-64
2022/08/09 12:30:38;;;;;;;2.80;0.70;;;;;;;;;;5015698;28;20266;-63
2022/08/09 12:33:03;;;;;;;3.20;0.60;;;;;;;;;;5015263;28;20217;-64
2022/08/09 12:35:29;;;;;;;2.05;0.70;;;;;;;;;;5014656;28;20721;-63
2022/08/09 12:37:54;;;;;;;3.58;0.70;;;;;;;;;;5015471;28;20228;-64
2022/08/09 12:40:20;;;;;;;2.08;0.70;;;;;;;;;;5015175;28;20658;-64
2022/08/09 12:42:45;;;;;;;1.83;0.60;;;;;;;;;;5014621;28;20205;-64
2022/08/09 12:45:11;;;;;;;2.65;0.73;;;;;;;;;;5014035;28;20327;-63
2022/08/09 12:47:36;;;;;;;0.80;0.50;;;;;;;;;;5014193;28;20266;-64
2022/08/09 12:50:17;;;;;;;2.25;0.60;;;;;;;;;;5014257;28;20216;-64
2022/08/09 12:52:43;;;;;;;3.40;0.57;;;;;;;;;;5014102;28;20216;-64
2022/08/09 12:55:09;;;;;;;1.27;0.65;;;;;;;;;;5014799;28;20216;-64
2022/08/09 12:57:35;;;;;;;1.80;0.60;;;;;;;;;;5014228;28;20312;-64
2022/08/09 13:00:16;;;;;;;2.22;0.70;;;;;;;;;;5015276;28;20248;-64
2022/08/09 13:02:50;;;;;;;2.30;0.70;;;;;;;;;;5001658;28;20699;-64
2022/08/09 13:05:16;;;;;;;2.65;0.70;;;;;;;;;;4989342;28;20484;-64
2022/08/09 13:07:42;;;;;;;2.25;0.80;;;;;;;;;;5000215;28;20228;-64
2022/08/09 13:10:07;;;;;;;1.63;0.60;;;;;;;;;;5000969;28;20222;-64
2022/08/09 13:12:32;;;;;;;1.35;0.70;;;;;;;;;;4994987;28;20251;-64
2022/08/09 13:15:03;;;;;;;2.00;0.70;;;;;;;;;;4989661;28;20667;-63
2022/08/09 13:17:29;;;;;;;3.35;0.70;;;;;;;;;;5006972;28;20278;-64
2022/08/09 13:19:55;;;;;;;4.20;0.80;;;;;;;;;;5003914;28;20213;-64
2022/08/09 13:22:22;;;;;;;4.82;0.77;;;;;;;;;;4988451;28;20293;-64
2022/08/09 13:24:48;;;;;;;0.80;0.55;;;;;;;;;;4988608;28;20232;-64
2022/08/09 13:27:22;;;;;;;1.92;0.68;;;;;;;;;;4982067;28;20221;-64
2022/08/09 13:29:55;;;;;;;2.42;0.52;;;;;;;;;;5000334;28;20262;-64
2022/08/09 13:32:21;;;;;;;2.10;0.65;;;;;;;;;;4999196;28;20216;-63
2022/08/09 13:34:46;;;;;;;3.10;0.60;;;;;;;;;;5007976;28;20282;-64
2022/08/09 13:37:13;;;;;;;1.15;0.60;;;;;;;;;;5001675;28;20759;-64
2022/08/09 13:39:39;;;;;;;2.45;0.50;;;;;;;;;;4989652;28;20217;-64
2022/08/09 13:42:05;;;;;;;4.85;0.60;;;;;;;;;;4987474;28;20207;-64
2022/08/09 13:44:30;;;;;;;3.25;0.70;;;;;;;;;;4989107;28;20209;-64
2022/08/09 13:46:56;;;;;;;2.35;0.70;;;;;;;;;;4988294;28;21059;-64
2022/08/09 13:49:21;;;;;;;2.40;0.90;;;;;;;;;;4983359;28;20247;-64
2022/08/09 13:51:46;;;;;;;1.15;0.70;;;;;;;;;;4999619;28;20591;-64
2022/08/09 13:54:12;;;;;;;1.30;0.50;;;;;;;;;;4980463;28;20927;-64
2022/08/09 13:56:37;;;;;;;3.25;0.60;;;;;;;;;;4986251;28;20564;-64
2022/08/09 13:59:02;;;;;;;1.55;0.50;;;;;;;;;;4988539;28;20425;-64
2022/08/09 14:01:27;;;;;;;1.88;0.60;;;;;;;;;;5003101;28;20213;-64
2022/08/09 14:03:53;;;;;;;2.85;0.52;;;;;;;;;;5011581;28;20254;-64
2022/08/09 14:06:18;;;;;;;2.33;0.70;;;;;;;;;;5033191;28;20697;-64
2022/08/09 14:08:43;;;;;;;3.35;0.70;;;;;;;;;;5032994;28;20666;-64
2022/08/09 14:11:09;;;;;;;1.70;0.60;;;;;;;;;;5023732;28;20205;-64
2022/08/09 14:13:34;;;;;;;1.63;0.60;;;;;;;;;;4993249;28;20296;-64
2022/08/09 14:16:00;;;;;;;2.30;0.70;;;;;;;;;;4994302;28;20216;-64
2022/08/09 14:18:26;;;;;;;2.50;0.60;;;;;;;;;;4993896;28;20631;-64
2022/08/09 14:20:51;;;;;;;1.98;0.60;;;;;;;;;;4993337;28;20220;-63
2022/08/09 14:23:17;;;;;;;3.42;0.60;;;;;;;;;;4993643;28;20285;-64
2022/08/09 14:25:42;;;;;;;4.28;0.50;;;;;;;;;;4993801;28;20684;-64
2022/08/09 14:28:07;;;;;;;3.50;0.50;;;;;;;;;;4992948;28;20213;-64
2022/08/09 14:30:32;;;;;;;1.58;0.70;;;;;;;;;;4993935;28;20209;-64
2022/08/09 14:32:58;;;;;;;1.95;0.70;;;;;;;;;;4993259;28;20221;-64
2022/08/09 14:35:23;;;;;;;4.03;0.90;;;;;;;;;;4992493;28;20687;-64